createdAt,value
2023-05-06T00:02:03.792Z,3.25
2023-05-06T00:12:06.052Z,3.92
2023-05-06T00:22:10.091Z,2.67
2023-05-06T00:32:12.081Z,3.00
2023-05-06T00:42:15.407Z,2.47
2023-05-06T00:52:18.921Z,3.03
2023-05-06T01:02:23.486Z,3.65
2023-05-06T01:12:34.147Z,2.65
2023-05-06T01:22:38.940Z,4.00
2023-05-06T01:32:53.045Z,2.72
2023-05-06T01:42:56.559Z,3.47
2023-05-06T01:53:01.363Z,4.00
2023-05-06T02:03:03.481Z,4.93
2023-05-06T02:13:06.981Z,4.80
2023-05-06T02:23:08.932Z,6.05
2023-05-06T02:33:12.289Z,5.10
2023-05-06T02:43:14.250Z,5.35
2023-05-06T02:53:17.624Z,6.07
2023-05-06T03:03:19.566Z,5.63
2023-05-06T03:13:23.119Z,5.88
2023-05-06T03:23:25.030Z,4.82
2023-05-06T03:33:28.411Z,4.70
2023-05-06T03:43:30.317Z,4.55
2023-05-06T03:53:33.760Z,3.33
2023-05-06T04:03:35.746Z,4.70
2023-05-06T04:13:39.155Z,5.35
2023-05-06T04:23:41.095Z,3.70
2023-05-06T04:33:44.434Z,6.10
2023-05-06T04:43:46.455Z,4.78
2023-05-06T04:53:49.837Z,4.30
2023-05-06T05:03:51.784Z,4.25
2023-05-06T05:13:57.112Z,4.43
2023-05-06T05:23:59.688Z,3.60
2023-05-06T05:34:03.124Z,3.85
2023-05-06T05:44:05.258Z,3.22
2023-05-06T05:54:08.614Z,4.90
2023-05-06T06:04:10.720Z,4.18
2023-05-06T06:14:14.087Z,3.72
2023-05-06T06:24:16.032Z,3.97
2023-05-06T06:34:19.314Z,3.88
2023-05-06T06:44:21.357Z,3.78
2023-05-06T06:54:24.930Z,5.25
2023-05-06T07:04:26.904Z,5.00
2023-05-06T07:14:30.228Z,4.97
2023-05-06T07:24:32.194Z,6.93
2023-05-06T07:34:35.495Z,4.72
2023-05-06T07:44:37.451Z,4.57
2023-05-06T07:54:40.772Z,4.93
2023-05-06T08:04:42.973Z,4.85
2023-05-06T08:14:46.533Z,3.83
2023-05-06T08:24:48.507Z,3.95
2023-05-06T08:34:52.081Z,6.35
2023-05-06T08:44:56.220Z,7.00
2023-05-06T08:55:00.688Z,5.38
2023-05-06T09:05:03.674Z,4.32
2023-05-06T09:15:09.413Z,4.82
2023-05-06T09:25:22.369Z,2.58
2023-05-06T09:35:28.820Z,3.28
2023-05-06T09:45:30.874Z,3.20
2023-05-06T09:55:34.810Z,2.40
2023-05-06T10:05:37.627Z,2.25
2023-05-06T10:15:42.416Z,2.15
2023-05-06T10:25:45.377Z,2.72
2023-05-06T10:35:55.213Z,1.52
2023-05-06T10:46:01.887Z,3.88
2023-05-06T10:56:09.119Z,2.95
2023-05-06T11:06:11.327Z,1.90
2023-05-06T11:16:46.736Z,2.22
2023-05-06T11:26:49.591Z,3.25
2023-05-06T11:37:03.321Z,1.85
2023-05-06T11:47:06.427Z,2.30
2023-05-06T11:57:10.285Z,1.95
2023-05-06T12:07:13.373Z,2.15
2023-05-06T12:17:17.188Z,2.28
2023-05-06T12:27:30.827Z,2.65
2023-05-06T12:37:35.299Z,1.42
2023-05-06T12:47:37.415Z,1.30
2023-05-06T12:57:40.866Z,1.00
2023-05-06T13:07:42.881Z,1.10
2023-05-06T13:17:46.372Z,1.10
2023-05-06T13:27:48.381Z,1.10
2023-05-06T13:37:51.691Z,0.80
2023-05-06T13:47:53.589Z,0.95
2023-05-06T13:57:57.195Z,0.73
2023-05-06T14:07:59.209Z,1.00
2023-05-06T14:18:03.144Z,1.42
2023-05-06T14:28:05.137Z,2.05
2023-05-06T14:38:08.664Z,1.13
2023-05-06T14:48:10.941Z,1.65
2023-05-06T14:58:14.331Z,1.10
2023-05-06T15:08:16.319Z,2.35
2023-05-06T15:18:19.620Z,1.90
2023-05-06T15:28:24.280Z,2.90
2023-05-06T15:38:27.969Z,2.22
2023-05-06T15:48:31.192Z,1.90
2023-05-06T15:58:35.669Z,2.08
2023-05-06T16:08:37.931Z,1.70
2023-05-06T16:18:41.311Z,1.42
2023-05-06T16:28:43.336Z,1.95
2023-05-06T16:38:46.618Z,2.17
2023-05-06T16:48:48.642Z,2.50
2023-05-06T16:58:51.996Z,3.33
2023-05-06T17:08:54.566Z,4.13
2023-05-06T17:18:57.905Z,5.30
2023-05-06T17:29:00.145Z,4.15
2023-05-06T17:39:04.536Z,4.72
2023-05-06T17:49:06.551Z,5.53
2023-05-06T17:59:09.839Z,5.85
2023-05-06T18:09:11.848Z,5.90
2023-05-06T18:19:15.146Z,5.43
2023-05-06T18:29:17.113Z,4.90
2023-05-06T18:39:23.637Z,5.75
2023-05-06T18:49:25.612Z,5.57
2023-05-06T18:59:28.947Z,4.80
2023-05-06T19:09:30.891Z,3.63
2023-05-06T19:19:34.287Z,3.63
2023-05-06T19:29:36.348Z,3.50
2023-05-06T19:39:39.652Z,4.10
2023-05-06T19:49:41.586Z,3.45
2023-05-06T19:59:44.900Z,4.45
2023-05-06T20:09:46.813Z,8.05
2023-05-06T20:19:50.480Z,5.63
2023-05-06T20:29:52.514Z,5.15
2023-05-06T20:39:55.848Z,5.18
2023-05-06T20:49:57.789Z,7.28
2023-05-06T21:00:01.129Z,9.00
2023-05-06T21:10:03.849Z,7.53
2023-05-06T21:20:08.673Z,7.18
2023-05-06T21:30:11.256Z,6.90
2023-05-06T21:40:14.619Z,8.85
2023-05-06T21:50:16.525Z,7.60
2023-05-06T22:00:20.048Z,8.23
2023-05-06T22:10:22.211Z,8.05
2023-05-06T22:20:25.431Z,6.35
2023-05-06T22:30:27.494Z,7.75
2023-05-06T22:40:30.848Z,9.55
2023-05-06T22:50:32.842Z,10.25
2023-05-06T23:00:36.225Z,9.55
2023-05-06T23:10:38.311Z,11.48
2023-05-06T23:20:41.621Z,10.13
2023-05-06T23:30:43.718Z,8.00
2023-05-06T23:40:47.075Z,8.63
2023-05-06T23:50:49.011Z,8.80
